sim
Sign-in with your pilot id or email,
or register
Callsign
Passwort

Schedule Details

Flight Number: DLH2441
Departure: Copenhagen Airport (EKCH) at 07:55
Arrival: Munich Airport (EDDM) at 09:30
Route: Lufthansa Passenger Schedule. Enter filed route here before submitting Pirep.

Weather Information
Getting current METAR information for EKCH 201920Z 03003KT 9999 BKN012 13/12 Q1022 TEMPO BKN006
Getting current METAR information for EDDM 201920Z 35001KT CAVOK 13/11 Q1016 NOSIG

Schedule Frequency

Route Map